sensor_id;sensor_type;location;lat;lon;timestamp;pressure;altitude;pressure_sealevel;temperature
74043;BMP280;62384;53.600;10.040;2022-12-05T00:00:20;-9388.16;;;5.30
74043;BMP280;62384;53.600;10.040;2022-12-05T00:02:46;-9385.78;;;5.21
74043;BMP280;62384;53.600;10.040;2022-12-05T00:05:11;-9385.78;;;5.21
74043;BMP280;62384;53.600;10.040;2022-12-05T00:07:37;-9386.44;;;5.23
74043;BMP280;62384;53.600;10.040;2022-12-05T00:10:04;-9388.28;;;5.30
74043;BMP280;62384;53.600;10.040;2022-12-05T00:12:30;-9385.91;;;5.21
74043;BMP280;62384;53.600;10.040;2022-12-05T00:14:55;-9385.91;;;5.21
74043;BMP280;62384;53.600;10.040;2022-12-05T00:17:20;-9387.50;;;5.27
74043;BMP280;62384;53.600;10.040;2022-12-05T00:19:45;-9386.31;;;5.23
74043;BMP280;62384;53.600;10.040;2022-12-05T00:22:11;-9385.91;;;5.21
74043;BMP280;62384;53.600;10.040;2022-12-05T00:24:38;-9386.69;;;5.24
74043;BMP280;62384;53.600;10.040;2022-12-05T00:27:03;-9387.50;;;5.27
74043;BMP280;62384;53.600;10.040;2022-12-05T00:29:28;-9387.63;;;5.28
74043;BMP280;62384;53.600;10.040;2022-12-05T00:31:54;-9388.81;;;5.32
74043;BMP280;62384;53.600;10.040;2022-12-05T00:34:19;-9388.03;;;5.29
74043;BMP280;62384;53.600;10.040;2022-12-05T00:36:44;-9389.34;;;5.34
74043;BMP280;62384;53.600;10.040;2022-12-05T00:39:11;-9390.25;;;5.38
74043;BMP280;62384;53.600;10.040;2022-12-05T00:41:38;-9387.75;;;5.28
74043;BMP280;62384;53.600;10.040;2022-12-05T00:44:04;-9389.34;;;5.34
74043;BMP280;62384;53.600;10.040;2022-12-05T00:46:30;-9390.53;;;5.39
74043;BMP280;62384;53.600;10.040;2022-12-05T00:48:59;-9389.06;;;5.33
74043;BMP280;62384;53.600;10.040;2022-12-05T00:51:27;-9390.00;;;5.37
74043;BMP280;62384;53.600;10.040;2022-12-05T00:53:53;-9386.97;;;5.25
74043;BMP280;62384;53.600;10.040;2022-12-05T00:56:21;-9392.22;;;5.45
74043;BMP280;62384;53.600;10.040;2022-12-05T00:58:48;-9392.75;;;5.47
74043;BMP280;62384;53.600;10.040;2022-12-05T01:01:22;-9393.16;;;5.49
74043;BMP280;62384;53.600;10.040;2022-12-05T01:03:51;-9392.34;;;5.46
74043;BMP280;62384;53.600;10.040;2022-12-05T01:06:16;-9390.13;;;5.37
74043;BMP280;62384;53.600;10.040;2022-12-05T01:08:42;-9390.78;;;5.40
74043;BMP280;62384;53.600;10.040;2022-12-05T01:11:08;-9393.41;;;5.50
74043;BMP280;62384;53.600;10.040;2022-12-05T01:13:34;-9388.81;;;5.32
74043;BMP280;62384;53.600;10.040;2022-12-05T01:16:00;-9392.50;;;5.46
74043;BMP280;62384;53.600;10.040;2022-12-05T01:18:26;-9395.66;;;5.58
74043;BMP280;62384;53.600;10.040;2022-12-05T01:20:52;-9394.06;;;5.52
74043;BMP280;62384;53.600;10.040;2022-12-05T01:23:18;-9392.34;;;5.46
74043;BMP280;62384;53.600;10.040;2022-12-05T01:25:45;-9396.31;;;5.61
74043;BMP280;62384;53.600;10.040;2022-12-05T01:28:12;-9393.94;;;5.52
74043;BMP280;62384;53.600;10.040;2022-12-05T01:30:39;-9395.91;;;5.59
74043;BMP280;62384;53.600;10.040;2022-12-05T01:33:05;-9390.25;;;5.38
74043;BMP280;62384;53.600;10.040;2022-12-05T01:35:35;-9394.72;;;5.55
74043;BMP280;62384;53.600;10.040;2022-12-05T01:38:00;-9393.03;;;5.48
74043;BMP280;62384;53.600;10.040;2022-12-05T01:40:26;-9393.03;;;5.48
74043;BMP280;62384;53.600;10.040;2022-12-05T01:42:52;-9394.06;;;5.52
74043;BMP280;62384;53.600;10.040;2022-12-05T01:45:23;-9395.78;;;5.59
74043;BMP280;62384;53.600;10.040;2022-12-05T01:47:50;-9396.16;;;5.60
74043;BMP280;62384;53.600;10.040;2022-12-05T01:50:16;-9395.00;;;5.56
74043;BMP280;62384;53.600;10.040;2022-12-05T01:52:41;-9395.78;;;5.59
74043;BMP280;62384;53.600;10.040;2022-12-05T01:55:12;-9395.00;;;5.56
74043;BMP280;62384;53.600;10.040;2022-12-05T01:57:39;-9397.34;;;5.65
74043;BMP280;62384;53.600;10.040;2022-12-05T02:00:11;-9397.34;;;5.65
74043;BMP280;62384;53.600;10.040;2022-12-05T02:02:38;-9398.53;;;5.70
74043;BMP280;62384;53.600;10.040;2022-12-05T02:05:07;-9397.63;;;5.66
74043;BMP280;62384;53.600;10.040;2022-12-05T02:07:35;-9400.91;;;5.79
74043;BMP280;62384;53.600;10.040;2022-12-05T02:10:02;-9398.00;;;5.68
74043;BMP280;62384;53.600;10.040;2022-12-05T02:12:27;-9399.06;;;5.72
74043;BMP280;62384;53.600;10.040;2022-12-05T02:15:34;-9400.13;;;5.76
74043;BMP280;62384;53.600;10.040;2022-12-05T02:18:35;-9399.72;;;5.74
74043;BMP280;62384;53.600;10.040;2022-12-05T02:24:20;-9400.38;;;5.77
74043;BMP280;62384;53.600;10.040;2022-12-05T02:35:06;-9398.94;;;5.71
74043;BMP280;62384;53.600;10.040;2022-12-05T02:37:43;-9401.16;;;5.80
74043;BMP280;62384;53.600;10.040;2022-12-05T02:40:31;-9400.50;;;5.77
74043;BMP280;62384;53.600;10.040;2022-12-05T02:43:15;-9400.38;;;5.77
74043;BMP280;62384;53.600;10.040;2022-12-05T02:45:43;-9399.47;;;5.73
74043;BMP280;62384;53.600;10.040;2022-12-05T02:48:09;-9400.38;;;5.77
74043;BMP280;62384;53.600;10.040;2022-12-05T02:50:37;-9399.19;;;5.72
74043;BMP280;62384;53.600;10.040;2022-12-05T02:53:09;-9400.38;;;5.77
74043;BMP280;62384;53.600;10.040;2022-12-05T02:55:35;-9399.19;;;5.72
74043;BMP280;62384;53.600;10.040;2022-12-05T02:58:04;-9399.72;;;5.74
74043;BMP280;62384;53.600;10.040;2022-12-05T03:00:31;-9398.28;;;5.69
74043;BMP280;62384;53.600;10.040;2022-12-05T03:02:59;-9398.00;;;5.68
74043;BMP280;62384;53.600;10.040;2022-12-05T03:05:38;-9398.41;;;5.69
74043;BMP280;62384;53.600;10.040;2022-12-05T03:08:07;-9400.66;;;5.78
74043;BMP280;62384;53.600;10.040;2022-12-05T03:10:38;-9402.09;;;5.83
74043;BMP280;62384;53.600;10.040;2022-12-05T03:13:07;-9400.78;;;5.78
74043;BMP280;62384;53.600;10.040;2022-12-05T03:15:38;-9403.94;;;5.90
74043;BMP280;62384;53.600;10.040;2022-12-05T03:18:46;-9399.84;;;5.75
74043;BMP280;62384;53.600;10.040;2022-12-05T03:24:07;-9400.66;;;5.78
74043;BMP280;62384;53.600;10.040;2022-12-05T03:26:43;-9400.00;;;5.75
74043;BMP280;62384;53.600;10.040;2022-12-05T03:29:24;-9400.66;;;5.78
74043;BMP280;62384;53.600;10.040;2022-12-05T03:32:04;-9400.78;;;5.78
74043;BMP280;62384;53.600;10.040;2022-12-05T03:37:56;-9401.31;;;5.80
74043;BMP280;62384;53.600;10.040;2022-12-05T03:43:52;-9402.63;;;5.85
74043;BMP280;62384;53.600;10.040;2022-12-05T03:48:53;-9403.00;;;5.87
74043;BMP280;62384;53.600;10.040;2022-12-05T03:51:24;-9404.59;;;5.93
74043;BMP280;62384;53.600;10.040;2022-12-05T03:53:56;-9404.19;;;5.91
74043;BMP280;62384;53.600;10.040;2022-12-05T03:56:34;-9402.63;;;5.85
74043;BMP280;62384;53.600;10.040;2022-12-05T03:59:34;-9404.84;;;5.94
74043;BMP280;62384;53.600;10.040;2022-12-05T04:02:07;-9403.66;;;5.89
74043;BMP280;62384;53.600;10.040;2022-12-05T04:04:38;-9401.44;;;5.81
74043;BMP280;62384;53.600;10.040;2022-12-05T04:07:06;-9401.84;;;5.82
74043;BMP280;62384;53.600;10.040;2022-12-05T04:09:39;-9403.78;;;5.90
74043;BMP280;62384;53.600;10.040;2022-12-05T04:12:13;-9401.56;;;5.81
74043;BMP280;62384;53.600;10.040;2022-12-05T04:14:44;-9402.50;;;5.85
74043;BMP280;62384;53.600;10.040;2022-12-05T04:17:21;-9402.22;;;5.84
74043;BMP280;62384;53.600;10.040;2022-12-05T04:20:01;-9399.31;;;5.73
74043;BMP280;62384;53.600;10.040;2022-12-05T04:22:46;-9401.31;;;5.80
74043;BMP280;62384;53.600;10.040;2022-12-05T04:25:14;-9402.75;;;5.86
74043;BMP280;62384;53.600;10.040;2022-12-05T04:28:09;-9403.00;;;5.87
74043;BMP280;62384;53.600;10.040;2022-12-05T04:33:37;-9402.50;;;5.85
74043;BMP280;62384;53.600;10.040;2022-12-05T04:38:41;-9401.84;;;5.82
74043;BMP280;62384;53.600;10.040;2022-12-05T04:41:13;-9400.13;;;5.76
74043;BMP280;62384;53.600;10.040;2022-12-05T04:43:40;-9400.50;;;5.77
74043;BMP280;62384;53.600;10.040;2022-12-05T04:46:08;-9399.84;;;5.75
74043;BMP280;62384;53.600;10.040;2022-12-05T04:48:37;-9400.25;;;5.76
74043;BMP280;62384;53.600;10.040;2022-12-05T04:51:06;-9398.94;;;5.71
74043;BMP280;62384;53.600;10.040;2022-12-05T04:53:32;-9399.84;;;5.75
74043;BMP280;62384;53.600;10.040;2022-12-05T04:55:59;-9399.84;;;5.75
74043;BMP280;62384;53.600;10.040;2022-12-05T04:58:26;-9397.50;;;5.66
74043;BMP280;62384;53.600;10.040;2022-12-05T05:01:02;-9398.28;;;5.69
74043;BMP280;62384;53.600;10.040;2022-12-05T05:03:34;-9398.53;;;5.70
74043;BMP280;62384;53.600;10.040;2022-12-05T05:06:01;-9399.59;;;5.74
74043;BMP280;62384;53.600;10.040;2022-12-05T05:08:27;-9399.19;;;5.72
74043;BMP280;62384;53.600;10.040;2022-12-05T05:11:08;-9397.75;;;5.67
74043;BMP280;62384;53.600;10.040;2022-12-05T05:13:37;-9395.25;;;5.57
74043;BMP280;62384;53.600;10.040;2022-12-05T05:16:03;-9395.66;;;5.58
74043;BMP280;62384;53.600;10.040;2022-12-05T05:18:28;-9392.75;;;5.47
74043;BMP280;62384;53.600;10.040;2022-12-05T05:20:54;-9395.13;;;5.56
74043;BMP280;62384;53.600;10.040;2022-12-05T05:23:19;-9395.91;;;5.59
74043;BMP280;62384;53.600;10.040;2022-12-05T05:25:44;-9397.09;;;5.64
74043;BMP280;62384;53.600;10.040;2022-12-05T05:28:09;-9394.59;;;5.54
74043;BMP280;62384;53.600;10.040;2022-12-05T05:30:35;-9396.16;;;5.60
74043;BMP280;62384;53.600;10.040;2022-12-05T05:33:00;-9395.38;;;5.57
74043;BMP280;62384;53.600;10.040;2022-12-05T05:35:25;-9396.81;;;5.63
74043;BMP280;62384;53.600;10.040;2022-12-05T05:37:51;-9394.59;;;5.54
74043;BMP280;62384;53.600;10.040;2022-12-05T05:40:16;-9395.13;;;5.56
74043;BMP280;62384;53.600;10.040;2022-12-05T05:42:47;-9397.22;;;5.65
74043;BMP280;62384;53.600;10.040;2022-12-05T05:45:13;-9392.34;;;5.46
74043;BMP280;62384;53.600;10.040;2022-12-05T05:47:39;-9392.50;;;5.46
74043;BMP280;62384;53.600;10.040;2022-12-05T05:50:05;-9396.44;;;5.62
74043;BMP280;62384;53.600;10.040;2022-12-05T05:52:32;-9397.22;;;5.65
74043;BMP280;62384;53.600;10.040;2022-12-05T05:54:59;-9392.63;;;5.47
74043;BMP280;62384;53.600;10.040;2022-12-05T05:57:24;-9394.47;;;5.54
74043;BMP280;62384;53.600;10.040;2022-12-05T05:59:49;-9394.19;;;5.53
74043;BMP280;62384;53.600;10.040;2022-12-05T06:02:14;-9392.22;;;5.45
74043;BMP280;62384;53.600;10.040;2022-12-05T06:04:40;-9392.88;;;5.48
74043;BMP280;62384;53.600;10.040;2022-12-05T06:07:05;-9394.06;;;5.52
74043;BMP280;62384;53.600;10.040;2022-12-05T06:09:31;-9392.63;;;5.47
74043;BMP280;62384;53.600;10.040;2022-12-05T06:11:56;-9393.53;;;5.50
74043;BMP280;62384;53.600;10.040;2022-12-05T06:14:21;-9391.97;;;5.44
74043;BMP280;62384;53.600;10.040;2022-12-05T06:16:46;-9394.34;;;5.53
74043;BMP280;62384;53.600;10.040;2022-12-05T06:19:12;-9390.13;;;5.37
74043;BMP280;62384;53.600;10.040;2022-12-05T06:21:37;-9391.84;;;5.44
74043;BMP280;62384;53.600;10.040;2022-12-05T06:24:02;-9392.22;;;5.45
74043;BMP280;62384;53.600;10.040;2022-12-05T06:26:28;-9389.06;;;5.33
74043;BMP280;62384;53.600;10.040;2022-12-05T06:28:53;-9387.22;;;5.26
74043;BMP280;62384;53.600;10.040;2022-12-05T06:31:21;-9389.34;;;5.34
74043;BMP280;62384;53.600;10.040;2022-12-05T06:33:47;-9390.66;;;5.39
74043;BMP280;62384;53.600;10.040;2022-12-05T06:36:18;-9383.56;;;5.12
74043;BMP280;62384;53.600;10.040;2022-12-05T06:38:43;-9386.31;;;5.23
74043;BMP280;62384;53.600;10.040;2022-12-05T06:41:14;-9390.13;;;5.37
74043;BMP280;62384;53.600;10.040;2022-12-05T06:43:40;-9391.97;;;5.44
74043;BMP280;62384;53.600;10.040;2022-12-05T06:46:07;-9389.59;;;5.35
74043;BMP280;62384;53.600;10.040;2022-12-05T06:48:33;-9390.38;;;5.38
74043;BMP280;62384;53.600;10.040;2022-12-05T06:50:58;-9388.28;;;5.30
74043;BMP280;62384;53.600;10.040;2022-12-05T06:53:24;-9391.03;;;5.41
74043;BMP280;62384;53.600;10.040;2022-12-05T06:56:03;-9388.53;;;5.31
74043;BMP280;62384;53.600;10.040;2022-12-05T06:58:30;-9381.97;;;5.06
74043;BMP280;62384;53.600;10.040;2022-12-05T07:00:56;-9389.19;;;5.34
74043;BMP280;62384;53.600;10.040;2022-12-05T07:03:40;-9390.53;;;5.39
74043;BMP280;62384;53.600;10.040;2022-12-05T07:06:07;-9388.16;;;5.30
74043;BMP280;62384;53.600;10.040;2022-12-05T07:08:33;-9388.41;;;5.31
74043;BMP280;62384;53.600;10.040;2022-12-05T07:10:59;-9387.75;;;5.28
74043;BMP280;62384;53.600;10.040;2022-12-05T07:13:24;-9386.06;;;5.22
74043;BMP280;62384;53.600;10.040;2022-12-05T07:15:50;-9385.78;;;5.21
74043;BMP280;62384;53.600;10.040;2022-12-05T07:18:16;-9387.75;;;5.28
74043;BMP280;62384;53.600;10.040;2022-12-05T07:20:42;-9385.41;;;5.19
74043;BMP280;62384;53.600;10.040;2022-12-05T07:23:08;-9383.28;;;5.11
74043;BMP280;62384;53.600;10.040;2022-12-05T07:25:33;-9378.56;;;4.93
74043;BMP280;62384;53.600;10.040;2022-12-05T07:27:58;-9381.19;;;5.03
74043;BMP280;62384;53.600;10.040;2022-12-05T07:30:24;-9376.59;;;4.85
74043;BMP280;62384;53.600;10.040;2022-12-05T07:32:49;-9381.97;;;5.06
74043;BMP280;62384;53.600;10.040;2022-12-05T07:35:15;-9380.41;;;5.00
74043;BMP280;62384;53.600;10.040;2022-12-05T07:37:40;-9371.19;;;4.65
74043;BMP280;62384;53.600;10.040;2022-12-05T07:40:06;-9378.56;;;4.93
74043;BMP280;62384;53.600;10.040;2022-12-05T07:42:34;-9378.81;;;4.94
74043;BMP280;62384;53.600;10.040;2022-12-05T07:45:03;-9376.44;;;4.85
74043;BMP280;62384;53.600;10.040;2022-12-05T07:47:29;-9375.94;;;4.83
74043;BMP280;62384;53.600;10.040;2022-12-05T07:49:54;-9372.91;;;4.71
74043;BMP280;62384;53.600;10.040;2022-12-05T07:52:23;-9373.81;;;4.75
74043;BMP280;62384;53.600;10.040;2022-12-05T07:54:48;-9370.28;;;4.61
74043;BMP280;62384;53.600;10.040;2022-12-05T07:57:13;-9369.88;;;4.60
74043;BMP280;62384;53.600;10.040;2022-12-05T07:59:39;-9371.06;;;4.64
74043;BMP280;62384;53.600;10.040;2022-12-05T08:02:04;-9371.84;;;4.67
74043;BMP280;62384;53.600;10.040;2022-12-05T08:04:29;-9371.84;;;4.67
74043;BMP280;62384;53.600;10.040;2022-12-05T08:06:54;-9368.16;;;4.53
74043;BMP280;62384;53.600;10.040;2022-12-05T08:09:20;-9372.63;;;4.70
74043;BMP280;62384;53.600;10.040;2022-12-05T08:11:45;-9370.94;;;4.64
74043;BMP280;62384;53.600;10.040;2022-12-05T08:14:11;-9372.38;;;4.69
74043;BMP280;62384;53.600;10.040;2022-12-05T08:16:39;-9372.63;;;4.70
74043;BMP280;62384;53.600;10.040;2022-12-05T08:19:07;-9373.03;;;4.72
74043;BMP280;62384;53.600;10.040;2022-12-05T08:21:34;-9372.25;;;4.69
74043;BMP280;62384;53.600;10.040;2022-12-05T08:24:00;-9370.66;;;4.63
74043;BMP280;62384;53.600;10.040;2022-12-05T08:26:28;-9373.56;;;4.74
74043;BMP280;62384;53.600;10.040;2022-12-05T08:28:59;-9373.44;;;4.73
74043;BMP280;62384;53.600;10.040;2022-12-05T08:31:26;-9370.78;;;4.63
74043;BMP280;62384;53.600;10.040;2022-12-05T08:33:52;-9370.53;;;4.62
74043;BMP280;62384;53.600;10.040;2022-12-05T08:36:18;-9370.13;;;4.61
74043;BMP280;62384;53.600;10.040;2022-12-05T08:38:44;-9362.13;;;4.30
74043;BMP280;62384;53.600;10.040;2022-12-05T08:41:13;-9369.34;;;4.58
74043;BMP280;62384;53.600;10.040;2022-12-05T08:43:40;-9368.28;;;4.54
74043;BMP280;62384;53.600;10.040;2022-12-05T08:46:06;-9365.53;;;4.43
74043;BMP280;62384;53.600;10.040;2022-12-05T08:48:32;-9365.66;;;4.44
74043;BMP280;62384;53.600;10.040;2022-12-05T08:50:59;-9365.41;;;4.43
74043;BMP280;62384;53.600;10.040;2022-12-05T08:53:28;-9366.19;;;4.46
74043;BMP280;62384;53.600;10.040;2022-12-05T08:55:53;-9371.19;;;4.65
74043;BMP280;62384;53.600;10.040;2022-12-05T08:58:19;-9369.09;;;4.57
74043;BMP280;62384;53.600;10.040;2022-12-05T09:00:44;-9364.88;;;4.40
74043;BMP280;62384;53.600;10.040;2022-12-05T09:03:10;-9362.38;;;4.31
74043;BMP280;62384;53.600;10.040;2022-12-05T09:05:36;-9363.81;;;4.36
74043;BMP280;62384;53.600;10.040;2022-12-05T09:08:02;-9365.41;;;4.43
74043;BMP280;62384;53.600;10.040;2022-12-05T09:10:28;-9360.81;;;4.25
74043;BMP280;62384;53.600;10.040;2022-12-05T09:12:54;-9363.16;;;4.34
74043;BMP280;62384;53.600;10.040;2022-12-05T09:15:19;-9362.38;;;4.31
74043;BMP280;62384;53.600;10.040;2022-12-05T09:17:45;-9360.16;;;4.22
74043;BMP280;62384;53.600;10.040;2022-12-05T09:20:10;-9363.03;;;4.33
74043;BMP280;62384;53.600;10.040;2022-12-05T09:22:38;-9363.16;;;4.34
74043;BMP280;62384;53.600;10.040;2022-12-05T09:25:05;-9365.53;;;4.43
74043;BMP280;62384;53.600;10.040;2022-12-05T09:27:30;-9364.34;;;4.38
74043;BMP280;62384;53.600;10.040;2022-12-05T09:29:55;-9365.13;;;4.41
74043;BMP280;62384;53.600;10.040;2022-12-05T09:32:21;-9363.31;;;4.34
74043;BMP280;62384;53.600;10.040;2022-12-05T09:34:46;-9363.31;;;4.34
74043;BMP280;62384;53.600;10.040;2022-12-05T09:37:11;-9363.44;;;4.35
74043;BMP280;62384;53.600;10.040;2022-12-05T09:39:37;-9363.81;;;4.36
74043;BMP280;62384;53.600;10.040;2022-12-05T09:42:30;-9359.63;;;4.20
74043;BMP280;62384;53.600;10.040;2022-12-05T09:45:22;-9360.53;;;4.24
74043;BMP280;62384;53.600;10.040;2022-12-05T09:47:59;-9362.50;;;4.31
74043;BMP280;62384;53.600;10.040;2022-12-05T09:58:57;-9362.25;;;4.30
74043;BMP280;62384;53.600;10.040;2022-12-05T10:04:14;-9363.81;;;4.36
74043;BMP280;62384;53.600;10.040;2022-12-05T10:07:00;-9362.91;;;4.33
74043;BMP280;62384;53.600;10.040;2022-12-05T10:16:55;-9360.41;;;4.23
74043;BMP280;62384;53.600;10.040;2022-12-05T10:19:34;-9362.91;;;4.33
74043;BMP280;62384;53.600;10.040;2022-12-05T10:22:10;-9364.22;;;4.38
74043;BMP280;62384;53.600;10.040;2022-12-05T10:24:44;-9365.13;;;4.41
74043;BMP280;62384;53.600;10.040;2022-12-05T10:27:18;-9361.34;;;4.27
74043;BMP280;62384;53.600;10.040;2022-12-05T10:29:52;-9364.22;;;4.38
74043;BMP280;62384;53.600;10.040;2022-12-05T10:32:27;-9364.63;;;4.39
74043;BMP280;62384;53.600;10.040;2022-12-05T10:35:00;-9366.06;;;4.45
74043;BMP280;62384;53.600;10.040;2022-12-05T10:37:26;-9363.56;;;4.35
74043;BMP280;62384;53.600;10.040;2022-12-05T10:39:54;-9365.00;;;4.41
74043;BMP280;62384;53.600;10.040;2022-12-05T10:42:31;-9367.13;;;4.49
74043;BMP280;62384;53.600;10.040;2022-12-05T10:45:02;-9366.97;;;4.49
74043;BMP280;62384;53.600;10.040;2022-12-05T10:47:29;-9367.50;;;4.51
74043;BMP280;62384;53.600;10.040;2022-12-05T10:49:57;-9368.16;;;4.53
74043;BMP280;62384;53.600;10.040;2022-12-05T10:52:24;-9366.19;;;4.46
74043;BMP280;62384;53.600;10.040;2022-12-05T10:55:04;-9366.06;;;4.45
74043;BMP280;62384;53.600;10.040;2022-12-05T10:57:31;-9367.91;;;4.52
74043;BMP280;62384;53.600;10.040;2022-12-05T10:59:56;-9364.75;;;4.40
74043;BMP280;62384;53.600;10.040;2022-12-05T11:02:25;-9367.50;;;4.51
74043;BMP280;62384;53.600;10.040;2022-12-05T11:04:52;-9364.09;;;4.37
74043;BMP280;62384;53.600;10.040;2022-12-05T11:10:32;-9365.13;;;4.41
74043;BMP280;62384;53.600;10.040;2022-12-05T11:12:59;-9366.31;;;4.46
74043;BMP280;62384;53.600;10.040;2022-12-05T11:15:29;-9364.75;;;4.40
74043;BMP280;62384;53.600;10.040;2022-12-05T11:17:57;-9364.09;;;4.37
74043;BMP280;62384;53.600;10.040;2022-12-05T11:22:54;-9361.59;;;4.28
74043;BMP280;62384;53.600;10.040;2022-12-05T11:25:34;-9365.94;;;4.45
74043;BMP280;62384;53.600;10.040;2022-12-05T11:34:23;-9367.50;;;4.51
74043;BMP280;62384;53.600;10.040;2022-12-05T11:36:54;-9366.47;;;4.47
74043;BMP280;62384;53.600;10.040;2022-12-05T11:39:20;-9363.97;;;4.37
74043;BMP280;62384;53.600;10.040;2022-12-05T11:45:01;-9365.13;;;4.41
74043;BMP280;62384;53.600;10.040;2022-12-05T11:56:06;-9363.97;;;4.37
74043;BMP280;62384;53.600;10.040;2022-12-05T12:07:20;-9366.59;;;4.47
74043;BMP280;62384;53.600;10.040;2022-12-05T12:10:17;-9365.41;;;4.43
74043;BMP280;62384;53.600;10.040;2022-12-05T12:15:36;-9366.47;;;4.47
74043;BMP280;62384;53.600;10.040;2022-12-05T12:18:42;-9365.81;;;4.44
74043;BMP280;62384;53.600;10.040;2022-12-05T12:21:21;-9365.66;;;4.44
74043;BMP280;62384;53.600;10.040;2022-12-05T12:27:18;-9365.28;;;4.42
74043;BMP280;62384;53.600;10.040;2022-12-05T12:32:51;-9367.63;;;4.51
74043;BMP280;62384;53.600;10.040;2022-12-05T12:38:16;-9366.84;;;4.48
74043;BMP280;62384;53.600;10.040;2022-12-05T12:40:53;-9366.97;;;4.49
74043;BMP280;62384;53.600;10.040;2022-12-05T12:51:56;-9368.69;;;4.55
74043;BMP280;62384;53.600;10.040;2022-12-05T13:02:30;-9367.63;;;4.51
74043;BMP280;62384;53.600;10.040;2022-12-05T13:05:14;-9368.44;;;4.54
74043;BMP280;62384;53.600;10.040;2022-12-05T13:07:47;-9367.91;;;4.52
74043;BMP280;62384;53.600;10.040;2022-12-05T13:10:32;-9365.41;;;4.43
74043;BMP280;62384;53.600;10.040;2022-12-05T13:13:01;-9365.00;;;4.41
74043;BMP280;62384;53.600;10.040;2022-12-05T13:15:50;-9363.81;;;4.36
74043;BMP280;62384;53.600;10.040;2022-12-05T13:18:20;-9364.63;;;4.39
74043;BMP280;62384;53.600;10.040;2022-12-05T13:20:48;-9364.75;;;4.40
74043;BMP280;62384;53.600;10.040;2022-12-05T13:23:18;-9364.75;;;4.40
74043;BMP280;62384;53.600;10.040;2022-12-05T13:25:45;-9365.41;;;4.43
74043;BMP280;62384;53.600;10.040;2022-12-05T13:28:31;-9364.22;;;4.38
74043;BMP280;62384;53.600;10.040;2022-12-05T13:30:57;-9364.47;;;4.39
74043;BMP280;62384;53.600;10.040;2022-12-05T13:33:34;-9364.88;;;4.40
74043;BMP280;62384;53.600;10.040;2022-12-05T13:36:06;-9362.38;;;4.31
74043;BMP280;62384;53.600;10.040;2022-12-05T13:41:58;-9360.66;;;4.24
74043;BMP280;62384;53.600;10.040;2022-12-05T13:44:42;-9358.84;;;4.17
74043;BMP280;62384;53.600;10.040;2022-12-05T13:49:59;-9357.25;;;4.11
74043;BMP280;62384;53.600;10.040;2022-12-05T13:52:29;-9355.03;;;4.03
74043;BMP280;62384;53.600;10.040;2022-12-05T13:55:23;-9359.63;;;4.20
74043;BMP280;62384;53.600;10.040;2022-12-05T13:57:52;-9357.91;;;4.14
74043;BMP280;62384;53.600;10.040;2022-12-05T14:00:25;-9354.09;;;3.99
74043;BMP280;62384;53.600;10.040;2022-12-05T14:02:52;-9354.38;;;4.00
74043;BMP280;62384;53.600;10.040;2022-12-05T14:07:53;-9357.53;;;4.12
74043;BMP280;62384;53.600;10.040;2022-12-05T14:15:46;-9359.09;;;4.18
74043;BMP280;62384;53.600;10.040;2022-12-05T14:21:05;-9359.09;;;4.18
74043;BMP280;62384;53.600;10.040;2022-12-05T14:26:33;-9359.22;;;4.19
74043;BMP280;62384;53.600;10.040;2022-12-05T14:35:12;-9355.94;;;4.06
74043;BMP280;62384;53.600;10.040;2022-12-05T14:43:02;-9357.25;;;4.11
74043;BMP280;62384;53.600;10.040;2022-12-05T14:45:39;-9355.03;;;4.03
74043;BMP280;62384;53.600;10.040;2022-12-05T14:55:45;-9351.34;;;3.89
74043;BMP280;62384;53.600;10.040;2022-12-05T15:00:58;-9351.75;;;3.90
74043;BMP280;62384;53.600;10.040;2022-12-05T15:03:37;-9350.94;;;3.87
74043;BMP280;62384;53.600;10.040;2022-12-05T15:06:05;-9350.28;;;3.84
74043;BMP280;62384;53.600;10.040;2022-12-05T15:08:52;-9343.97;;;3.60
74043;BMP280;62384;53.600;10.040;2022-12-05T15:11:23;-9347.91;;;3.75
74043;BMP280;62384;53.600;10.040;2022-12-05T15:14:16;-9347.91;;;3.75
74043;BMP280;62384;53.600;10.040;2022-12-05T15:16:44;-9349.25;;;3.80
74043;BMP280;62384;53.600;10.040;2022-12-05T15:19:51;-9349.91;;;3.83
74043;BMP280;62384;53.600;10.040;2022-12-05T15:22:18;-9347.66;;;3.74
74043;BMP280;62384;53.600;10.040;2022-12-05T15:24:45;-9344.13;;;3.61
74043;BMP280;62384;53.600;10.040;2022-12-05T15:27:11;-9345.56;;;3.66
74043;BMP280;62384;53.600;10.040;2022-12-05T15:29:37;-9346.75;;;3.71
74043;BMP280;62384;53.600;10.040;2022-12-05T15:37:09;-9348.06;;;3.76
74043;BMP280;62384;53.600;10.040;2022-12-05T15:39:55;-9347.00;;;3.72
74043;BMP280;62384;53.600;10.040;2022-12-05T15:42:23;-9347.25;;;3.73
74043;BMP280;62384;53.600;10.040;2022-12-05T15:44:49;-9345.44;;;3.66
74043;BMP280;62384;53.600;10.040;2022-12-05T15:47:23;-9346.22;;;3.69
74043;BMP280;62384;53.600;10.040;2022-12-05T15:49:49;-9344.50;;;3.62
74043;BMP280;62384;53.600;10.040;2022-12-05T15:52:31;-9346.47;;;3.70
74043;BMP280;62384;53.600;10.040;2022-12-05T15:55:05;-9343.97;;;3.60
74043;BMP280;62384;53.600;10.040;2022-12-05T15:57:40;-9344.50;;;3.62
74043;BMP280;62384;53.600;10.040;2022-12-05T16:00:13;-9344.91;;;3.64
74043;BMP280;62384;53.600;10.040;2022-12-05T16:03:03;-9344.78;;;3.63
74043;BMP280;62384;53.600;10.040;2022-12-05T16:05:37;-9342.13;;;3.53
74043;BMP280;62384;53.600;10.040;2022-12-05T16:08:04;-9340.81;;;3.48
74043;BMP280;62384;53.600;10.040;2022-12-05T16:10:30;-9341.47;;;3.51
74043;BMP280;62384;53.600;10.040;2022-12-05T16:13:02;-9340.03;;;3.45
74043;BMP280;62384;53.600;10.040;2022-12-05T16:15:28;-9338.19;;;3.38
74043;BMP280;62384;53.600;10.040;2022-12-05T16:17:57;-9342.94;;;3.56
74043;BMP280;62384;53.600;10.040;2022-12-05T16:22:59;-9341.09;;;3.49
74043;BMP280;62384;53.600;10.040;2022-12-05T16:25:32;-9340.56;;;3.47
74043;BMP280;62384;53.600;10.040;2022-12-05T16:30:34;-9338.59;;;3.40
74043;BMP280;62384;53.600;10.040;2022-12-05T16:33:04;-9337.41;;;3.35
74043;BMP280;62384;53.600;10.040;2022-12-05T16:38:11;-9339.25;;;3.42
74043;BMP280;62384;53.600;10.040;2022-12-05T16:40:49;-9338.31;;;3.39
74043;BMP280;62384;53.600;10.040;2022-12-05T16:43:26;-9339.13;;;3.42
74043;BMP280;62384;53.600;10.040;2022-12-05T16:45:55;-9341.88;;;3.52
74043;BMP280;62384;53.600;10.040;2022-12-05T16:48:29;-9341.22;;;3.50
74043;BMP280;62384;53.600;10.040;2022-12-05T16:53:35;-9337.94;;;3.37
74043;BMP280;62384;53.600;10.040;2022-12-05T16:56:02;-9338.19;;;3.38
74043;BMP280;62384;53.600;10.040;2022-12-05T16:58:29;-9333.06;;;3.18
74043;BMP280;62384;53.600;10.040;2022-12-05T17:01:04;-9339.78;;;3.44
74043;BMP280;62384;53.600;10.040;2022-12-05T17:03:30;-9339.00;;;3.41
74043;BMP280;62384;53.600;10.040;2022-12-05T17:05:56;-9340.03;;;3.45
74043;BMP280;62384;53.600;10.040;2022-12-05T17:08:22;-9341.75;;;3.52
74043;BMP280;62384;53.600;10.040;2022-12-05T17:10:47;-9339.91;;;3.45